Ardenhurst, Minnesota
Current Conditions -  °F | °C
As of 3:33 AM on Sunday 26 Oct 2014 (Local Time) from KFOZ Reporting Station
Clear Clear  
Wind Chill: -2°   Ceiling: Unl
Heat Index: -2°   Visibility: 10mi
Dew Point: -4°   Wind: 0mph
Humidity: 86%   Direction: NA
Pressure: 29.98"   Gusts: NA
Location:  47.8312°N, 94.1459°W
Report Text: KFOZ 260833Z AUTO 00000KT 10SM CLR M02/M04 A2998 RMK AO2
Loading
Personal Weather Stations






























Interactive Weather Map
Tropical Storm Tracking
New forecast layout! Learn more

10-Day Weather Forecast

Advertisements
Track Severe Weather on mobile